createdAt,value
2019-04-05T00:00:40.019Z,38.55
2019-04-05T00:03:27.549Z,42.43
2019-04-05T00:06:07.018Z,38.33
2019-04-05T00:08:52.702Z,39.88
2019-04-05T00:11:36.245Z,39.58
2019-04-05T00:14:09.574Z,36.48
2019-04-05T00:16:54.646Z,34.73
2019-04-05T00:19:33.075Z,38.20
2019-04-05T00:22:23.699Z,37.05
2019-04-05T00:25:03.063Z,35.17
2019-04-05T00:28:05.288Z,37.48
2019-04-05T00:33:44.182Z,37.98
2019-04-05T00:36:27.344Z,43.15
2019-04-05T00:39:21.294Z,36.20
2019-04-05T00:44:57.675Z,45.73
2019-04-05T00:47:40.793Z,46.50
2019-04-05T00:50:16.795Z,49.35
2019-04-05T00:53:05.330Z,39.63
2019-04-05T00:55:39.702Z,48.30
2019-04-05T00:58:12.733Z,43.52
2019-04-05T01:00:47.159Z,37.73
2019-04-05T01:06:21.800Z,41.75
2019-04-05T01:09:06.272Z,38.20
2019-04-05T01:11:51.767Z,39.70
2019-04-05T01:14:25.816Z,43.13
2019-04-05T01:17:01.969Z,40.08
2019-04-05T01:19:48.331Z,36.65
2019-04-05T01:22:24.471Z,39.95
2019-04-05T01:25:40.430Z,41.85
2019-04-05T01:28:24.210Z,39.10
2019-04-05T01:31:02.432Z,43.00
2019-04-05T01:33:43.674Z,39.33
2019-04-05T01:36:19.619Z,38.20
2019-04-05T01:38:57.848Z,35.73
2019-04-05T01:41:31.957Z,38.00
2019-04-05T01:44:03.988Z,37.10
2019-04-05T01:46:51.151Z,37.23
2019-04-05T01:49:23.075Z,39.63
2019-04-05T01:51:56.655Z,35.55
2019-04-05T01:54:45.388Z,34.92
2019-04-05T01:57:22.674Z,39.33
2019-04-05T01:59:54.659Z,45.88
2019-04-05T02:02:26.973Z,38.15
2019-04-05T02:05:00.532Z,36.35
2019-04-05T02:07:36.023Z,45.05
2019-04-05T02:10:13.771Z,39.03
2019-04-05T02:12:49.693Z,34.85
2019-04-05T02:15:37.280Z,33.80
2019-04-05T02:18:16.809Z,34.45
2019-04-05T02:20:49.620Z,34.18
2019-04-05T02:23:25.678Z,36.53
2019-04-05T02:25:55.971Z,38.48
2019-04-05T02:28:30.249Z,38.35
2019-04-05T02:33:52.611Z,63.17
2019-04-05T02:36:24.799Z,44.05
2019-04-05T02:39:04.099Z,39.78
2019-04-05T02:41:38.079Z,41.30
2019-04-05T02:44:15.436Z,42.70
2019-04-05T02:47:06.645Z,43.45
2019-04-05T02:49:34.463Z,38.30
2019-04-05T02:52:09.001Z,43.70
2019-04-05T02:54:46.816Z,37.10
2019-04-05T02:57:22.119Z,40.55
2019-04-05T03:00:04.411Z,47.00
2019-04-05T03:02:56.422Z,41.50
2019-04-05T03:05:30.961Z,36.10
2019-04-05T03:08:08.598Z,40.28
2019-04-05T03:11:03.064Z,42.43
2019-04-05T03:13:43.112Z,39.55
2019-04-05T03:16:16.823Z,43.65
2019-04-05T03:18:53.290Z,40.67
2019-04-05T03:21:30.442Z,40.70
2019-04-05T03:24:16.347Z,41.68
2019-04-05T03:26:48.509Z,43.15
2019-04-05T03:29:20.533Z,44.35
2019-04-05T03:31:57.367Z,51.37
2019-04-05T03:34:24.275Z,51.92
2019-04-05T03:36:55.140Z,45.78
2019-04-05T03:39:28.652Z,49.42
2019-04-05T03:42:02.193Z,46.70
2019-04-05T03:44:35.637Z,46.02
2019-04-05T03:47:09.316Z,40.75
2019-04-05T03:49:40.134Z,40.85
2019-04-05T03:54:50.033Z,39.38
2019-04-05T03:57:25.713Z,36.88
2019-04-05T04:00:00.608Z,37.20
2019-04-05T04:02:35.389Z,40.60
2019-04-05T04:05:12.429Z,38.53
2019-04-05T04:07:44.515Z,40.00
2019-04-05T04:10:25.804Z,40.40
2019-04-05T04:13:10.212Z,46.00
2019-04-05T04:15:46.521Z,48.92
2019-04-05T04:18:31.656Z,43.50
2019-04-05T04:21:09.860Z,40.80
2019-04-05T04:23:43.647Z,46.98
2019-04-05T04:26:35.366Z,42.62
2019-04-05T04:29:28.591Z,43.83
2019-04-05T04:31:44.083Z,50.25
2019-04-05T04:34:20.991Z,43.70
2019-04-05T04:40:12.024Z,74.32
2019-04-05T04:42:54.939Z,50.65
2019-04-05T04:45:29.921Z,54.33
2019-04-05T04:48:00.449Z,55.85
2019-04-05T04:50:45.592Z,61.85
2019-04-05T04:53:23.001Z,51.73
2019-04-05T04:55:58.161Z,56.13
2019-04-05T04:58:28.761Z,55.63
2019-04-05T05:04:02.042Z,63.33
2019-04-05T05:06:39.439Z,68.60
2019-04-05T05:09:13.652Z,66.02
2019-04-05T05:11:52.923Z,71.77
2019-04-05T05:18:29.454Z,92.20
2019-04-05T05:20:47.339Z,81.22
2019-04-05T05:23:20.332Z,126.55
2019-04-05T05:26:16.574Z,83.55
2019-04-05T05:31:52.514Z,60.55
2019-04-05T05:34:45.778Z,61.23
2019-04-05T05:37:25.139Z,72.40
2019-04-05T05:39:55.171Z,55.17
2019-04-05T05:42:25.523Z,59.93
2019-04-05T05:44:55.546Z,59.30
2019-04-05T05:47:25.729Z,95.60
2019-04-05T05:49:56.078Z,76.47
2019-04-05T05:52:26.967Z,61.40
2019-04-05T05:54:57.292Z,56.35
2019-04-05T05:57:27.346Z,54.80
2019-04-05T06:00:00.211Z,45.92
2019-04-05T06:02:30.539Z,57.50
2019-04-05T06:05:00.584Z,50.85
2019-04-05T06:07:30.588Z,43.75
2019-04-05T06:10:00.619Z,43.23
2019-04-05T06:12:31.053Z,50.10
2019-04-05T06:15:01.368Z,59.48
2019-04-05T06:17:31.577Z,55.90
2019-04-05T06:20:01.539Z,43.28
2019-04-05T06:22:31.787Z,45.25
2019-04-05T06:25:02.122Z,43.87
2019-04-05T06:27:35.354Z,49.63
2019-04-05T06:30:06.876Z,40.70
2019-04-05T06:32:37.047Z,48.05
2019-04-05T06:35:07.941Z,39.85
2019-04-05T06:37:38.300Z,44.35
2019-04-05T06:40:08.776Z,49.05
2019-04-05T06:42:38.958Z,42.35
2019-04-05T06:45:09.360Z,41.45
2019-04-05T06:47:39.804Z,41.35
2019-04-05T06:50:10.180Z,38.60
2019-04-05T06:52:40.227Z,35.73
2019-04-05T06:55:10.450Z,44.20
2019-04-05T06:57:40.411Z,48.28
2019-04-05T07:00:10.983Z,57.20
2019-04-05T07:02:41.593Z,48.17
2019-04-05T07:05:12.071Z,43.00
2019-04-05T07:07:42.435Z,38.60
2019-04-05T07:10:12.709Z,45.40
2019-04-05T07:12:43.085Z,47.05
2019-04-05T07:15:13.299Z,44.77
2019-04-05T07:17:43.780Z,37.73
2019-04-05T07:20:13.862Z,33.65
2019-04-05T07:22:44.407Z,37.15
2019-04-05T07:25:14.905Z,34.67
2019-04-05T07:27:45.363Z,49.88
2019-04-05T07:30:15.558Z,39.63
2019-04-05T07:32:45.679Z,41.75
2019-04-05T07:35:16.006Z,39.88
2019-04-05T07:37:46.131Z,34.83
2019-04-05T07:40:17.341Z,38.65
2019-04-05T07:42:47.625Z,42.30
2019-04-05T07:45:18.205Z,39.88
2019-04-05T07:47:48.665Z,40.35
2019-04-05T07:50:20.092Z,37.67
2019-04-05T07:52:50.367Z,37.80
2019-04-05T07:55:20.467Z,40.35
2019-04-05T07:57:51.100Z,39.00
2019-04-05T08:00:51.698Z,39.15
2019-04-05T08:03:23.059Z,43.75
2019-04-05T08:05:53.721Z,48.87
2019-04-05T08:08:42.049Z,44.93
2019-04-05T08:11:12.525Z,39.65
2019-04-05T08:13:44.556Z,38.65
2019-04-05T08:16:14.870Z,36.90
2019-04-05T08:18:57.048Z,43.30
2019-04-05T08:21:16.767Z,51.28
2019-04-05T08:23:46.892Z,60.28
2019-04-05T08:26:17.214Z,50.33
2019-04-05T08:28:47.399Z,48.15
2019-04-05T08:31:18.132Z,48.08
2019-04-05T08:33:48.315Z,41.33
2019-04-05T08:36:19.635Z,41.65
2019-04-05T08:38:50.046Z,38.10
2019-04-05T08:41:20.135Z,35.45
2019-04-05T08:43:50.593Z,36.98
2019-04-05T08:46:20.733Z,34.20
2019-04-05T08:48:52.401Z,33.23
2019-04-05T08:51:22.684Z,38.70
2019-04-05T08:53:55.412Z,51.77
2019-04-05T08:56:25.596Z,42.08
2019-04-05T08:58:55.919Z,39.70
2019-04-05T09:01:26.489Z,48.10
2019-04-05T09:03:56.610Z,38.85
2019-04-05T09:06:27.086Z,39.53
2019-04-05T09:08:57.280Z,38.90
2019-04-05T09:11:27.625Z,113.85
2019-04-05T09:13:58.022Z,55.85
2019-04-05T09:16:28.326Z,52.53
2019-04-05T09:18:58.770Z,37.88
2019-04-05T09:21:28.737Z,44.55
2019-04-05T09:23:59.587Z,40.40
2019-04-05T09:26:29.932Z,41.68
2019-04-05T09:29:00.487Z,38.55
2019-04-05T09:31:30.970Z,39.00
2019-04-05T09:34:00.936Z,43.48
2019-04-05T09:36:31.355Z,39.80
2019-04-05T09:39:01.586Z,38.85
2019-04-05T09:41:33.355Z,70.57
2019-04-05T09:44:03.666Z,51.30
2019-04-05T09:46:45.886Z,43.50
2019-04-05T09:51:35.181Z,48.38
2019-04-05T09:54:06.093Z,36.38
2019-04-05T09:56:36.283Z,48.20
2019-04-05T09:59:08.295Z,39.47
2019-04-05T10:01:39.843Z,45.65
2019-04-05T10:04:10.343Z,50.98
2019-04-05T10:06:40.832Z,48.17
2019-04-05T10:09:12.184Z,82.08
2019-04-05T10:11:42.758Z,41.92
2019-04-05T10:14:14.216Z,43.13
2019-04-05T10:16:44.422Z,37.45
2019-04-05T10:19:14.477Z,51.55
2019-04-05T10:21:44.484Z,42.38
2019-04-05T10:24:14.749Z,91.00
2019-04-05T10:26:44.975Z,46.53
2019-04-05T10:29:26.760Z,38.48
2019-04-05T10:32:02.846Z,50.88
2019-04-05T10:34:43.211Z,38.70
2019-04-05T10:37:31.647Z,41.28
2019-04-05T10:40:19.907Z,36.75
2019-04-05T10:42:50.780Z,31.97
2019-04-05T10:45:24.206Z,43.85
2019-04-05T10:53:50.092Z,49.38
2019-04-05T10:56:43.945Z,44.15
2019-04-05T10:59:19.466Z,37.48
2019-04-05T11:02:07.539Z,40.65
2019-04-05T11:04:46.453Z,39.55
2019-04-05T11:07:20.353Z,48.87
2019-04-05T11:10:04.066Z,50.58
2019-04-05T11:12:56.765Z,39.50
2019-04-05T11:15:21.676Z,42.17
2019-04-05T11:18:04.584Z,31.02
2019-04-05T11:23:31.523Z,51.35
2019-04-05T11:29:12.721Z,41.45
2019-04-05T11:31:57.080Z,37.25
2019-04-05T11:34:28.071Z,31.42
2019-04-05T11:36:58.995Z,33.65
2019-04-05T11:39:37.048Z,36.50
2019-04-05T11:42:19.097Z,32.60
2019-04-05T11:45:14.525Z,33.02
2019-04-05T11:47:57.742Z,36.55
2019-04-05T11:50:39.951Z,43.02
2019-04-05T11:56:14.971Z,28.77
2019-04-05T11:59:01.453Z,39.00
2019-04-05T12:02:11.563Z,40.45
2019-04-05T12:05:09.513Z,34.63
2019-04-05T12:10:13.160Z,36.15
2019-04-05T12:13:07.812Z,36.75
2019-04-05T12:15:41.912Z,35.38
2019-04-05T12:18:19.727Z,71.97
2019-04-05T12:21:00.044Z,39.18
2019-04-05T12:23:37.542Z,34.60
2019-04-05T12:26:12.468Z,62.40
2019-04-05T12:28:56.244Z,35.98
2019-04-05T12:31:28.394Z,34.10
2019-04-05T12:33:59.003Z,37.53
2019-04-05T12:36:29.156Z,31.73
2019-04-05T12:38:59.078Z,31.07
2019-04-05T12:41:29.022Z,33.60
2019-04-05T12:43:58.947Z,31.07
2019-04-05T12:46:29.054Z,35.80
2019-04-05T12:48:58.932Z,28.05
2019-04-05T12:51:29.027Z,50.63
2019-04-05T12:53:58.902Z,28.12
2019-04-05T12:56:28.920Z,32.35
2019-04-05T12:58:58.863Z,29.05
2019-04-05T13:01:28.773Z,27.75
2019-04-05T13:03:58.934Z,30.75
2019-04-05T13:06:28.969Z,47.53
2019-04-05T13:08:59.074Z,42.90
2019-04-05T13:11:29.789Z,28.70
2019-04-05T13:13:59.843Z,28.55
2019-04-05T13:16:29.867Z,24.75
2019-04-05T13:19:00.821Z,48.55
2019-04-05T13:21:32.921Z,37.10
2019-04-05T13:24:04.338Z,33.67
2019-04-05T13:26:36.798Z,34.48
2019-04-05T13:29:08.327Z,40.88
2019-04-05T13:31:38.292Z,33.30
2019-04-05T13:34:08.286Z,27.10
2019-04-05T13:36:38.165Z,34.00
2019-04-05T13:39:09.309Z,37.88
2019-04-05T13:41:39.261Z,44.50
2019-04-05T13:44:09.363Z,23.65
2019-04-05T13:46:42.352Z,36.77
2019-04-05T13:49:11.004Z,26.75
2019-04-05T13:51:42.847Z,47.73
2019-04-05T13:54:13.228Z,35.17
2019-04-05T13:56:43.306Z,36.68
2019-04-05T13:59:13.313Z,31.95
2019-04-05T14:01:43.637Z,33.65
2019-04-05T14:04:13.738Z,46.80
2019-04-05T14:06:43.682Z,25.90
2019-04-05T14:09:15.569Z,20.75
2019-04-05T14:11:46.847Z,24.05
2019-04-05T14:14:17.898Z,45.58
2019-04-05T14:16:47.947Z,37.35
2019-04-05T14:19:19.140Z,23.25
2019-04-05T14:24:21.470Z,34.05
2019-04-05T14:26:51.916Z,30.88
2019-04-05T14:29:22.000Z,47.50
2019-04-05T14:31:52.116Z,39.88
2019-04-05T14:34:23.706Z,48.98
2019-04-05T14:36:54.082Z,33.28
2019-04-05T14:39:24.262Z,39.10
2019-04-05T14:41:54.245Z,35.60
2019-04-05T14:44:24.375Z,48.45
2019-04-05T14:46:55.873Z,44.23
2019-04-05T14:49:26.278Z,39.35
2019-04-05T14:51:56.687Z,33.85
2019-04-05T14:54:27.237Z,33.20
2019-04-05T14:56:57.637Z,52.10
2019-04-05T14:59:29.501Z,37.73
2019-04-05T15:01:59.751Z,26.73
2019-04-05T15:04:29.854Z,29.65
2019-04-05T15:07:01.383Z,22.17
2019-04-05T15:12:04.726Z,24.32
2019-04-05T15:14:34.919Z,24.63
2019-04-05T15:17:05.024Z,25.55
2019-04-05T15:19:35.002Z,22.65
2019-04-05T15:22:10.627Z,39.53
2019-04-05T15:24:38.513Z,26.68
2019-04-05T15:27:08.467Z,24.20
2019-04-05T15:29:38.469Z,47.53
2019-04-05T15:32:08.711Z,29.63
2019-04-05T15:34:38.694Z,32.70
2019-04-05T15:37:09.098Z,35.35
2019-04-05T15:39:39.375Z,38.08
2019-04-05T15:42:09.765Z,60.90
2019-04-05T15:44:39.968Z,37.70
2019-04-05T15:47:10.200Z,30.85
2019-04-05T15:49:40.646Z,25.32
2019-04-05T15:52:18.486Z,21.40
2019-04-05T15:54:43.279Z,34.80
2019-04-05T15:57:13.357Z,49.73
2019-04-05T15:59:45.096Z,47.13
2019-04-05T16:02:15.904Z,42.62
2019-04-05T16:04:46.407Z,37.65
2019-04-05T16:07:16.774Z,35.85
2019-04-05T16:09:47.214Z,37.80
2019-04-05T16:12:17.158Z,91.92
2019-04-05T16:14:47.458Z,34.90
2019-04-05T16:17:19.363Z,39.27
2019-04-05T16:22:30.819Z,35.20
2019-04-05T16:24:50.843Z,80.50
2019-04-05T16:27:20.764Z,70.12
2019-04-05T16:29:51.240Z,59.65
2019-04-05T16:32:21.205Z,75.08
2019-04-05T16:34:51.657Z,52.17
2019-04-05T16:37:21.572Z,63.08
2019-04-05T16:39:51.572Z,61.95
2019-04-05T16:42:21.826Z,62.05
2019-04-05T16:44:51.836Z,54.45
2019-04-05T16:47:22.342Z,50.55
2019-04-05T16:49:52.523Z,48.50
2019-04-05T16:52:22.858Z,48.55
2019-04-05T16:54:53.338Z,67.05
2019-04-05T16:57:23.392Z,52.10
2019-04-05T16:59:53.365Z,44.38
2019-04-05T17:02:23.568Z,42.33
2019-04-05T17:04:53.833Z,42.70
2019-04-05T17:07:23.766Z,58.25
2019-04-05T17:09:53.934Z,55.03
2019-04-05T17:12:23.996Z,43.75
2019-04-05T17:14:54.067Z,54.10
2019-04-05T17:17:24.217Z,64.05
2019-04-05T17:19:54.683Z,62.08
2019-04-05T17:22:25.293Z,69.03
2019-04-05T17:24:55.626Z,84.77
2019-04-05T17:27:25.592Z,88.15
2019-04-05T17:29:55.814Z,88.35
2019-04-05T17:32:27.941Z,92.05
2019-04-05T17:34:59.159Z,90.15
2019-04-05T17:37:29.361Z,144.85
2019-04-05T17:40:00.639Z,100.87
2019-04-05T17:42:30.786Z,87.85
2019-04-05T17:45:01.007Z,93.72
2019-04-05T17:47:32.010Z,82.10
2019-04-05T17:50:02.123Z,72.47
2019-04-05T17:52:33.670Z,70.22
2019-04-05T17:55:04.003Z,75.57
2019-04-05T17:57:35.720Z,55.90
2019-04-05T18:00:09.215Z,92.55
2019-04-05T18:02:44.108Z,69.67
2019-04-05T18:05:14.168Z,67.42
2019-04-05T18:07:44.333Z,66.28
2019-04-05T18:10:14.760Z,63.90
2019-04-05T18:12:44.753Z,57.55
2019-04-05T18:15:15.447Z,56.00
2019-04-05T18:17:45.510Z,48.33
2019-04-05T18:20:15.957Z,60.65
2019-04-05T18:22:46.216Z,59.25
2019-04-05T18:25:16.387Z,73.52
2019-04-05T18:27:46.645Z,55.03
2019-04-05T18:30:19.479Z,62.83
2019-04-05T18:32:49.488Z,62.48
2019-04-05T18:35:22.609Z,92.47
2019-04-05T18:37:53.217Z,120.60
2019-04-05T18:40:23.654Z,248.53
2019-04-05T18:42:54.806Z,106.52
2019-04-05T18:45:24.850Z,126.10
2019-04-05T18:47:55.096Z,221.43
2019-04-05T18:50:25.148Z,187.35
2019-04-05T18:52:55.395Z,160.20
2019-04-05T18:55:26.565Z,128.12
2019-04-05T18:57:56.470Z,95.97
2019-04-05T19:00:26.609Z,61.28
2019-04-05T19:02:56.735Z,65.10
2019-04-05T19:05:28.000Z,63.00
2019-04-05T19:07:58.061Z,52.83
2019-04-05T19:10:36.838Z,45.25
2019-04-05T19:13:00.918Z,61.90
2019-04-05T19:15:31.163Z,41.53
2019-04-05T19:18:01.139Z,42.53
2019-04-05T19:20:37.013Z,37.95
2019-04-05T19:23:07.205Z,39.88
2019-04-05T19:25:38.491Z,38.53
2019-04-05T19:28:08.818Z,38.33
2019-04-05T19:49:09.319Z,44.18
2019-04-05T19:51:51.390Z,51.13
2019-04-05T19:54:26.523Z,42.53
2019-04-05T19:56:56.975Z,43.60
2019-04-05T19:59:27.170Z,56.48
2019-04-05T20:01:58.553Z,46.90
2019-04-05T20:04:29.006Z,42.30
2019-04-05T20:06:59.261Z,42.45
2019-04-05T20:09:32.408Z,39.67
2019-04-05T20:14:50.791Z,38.53
2019-04-05T20:17:29.646Z,44.15
2019-04-05T20:20:06.921Z,37.48
2019-04-05T20:22:38.743Z,44.00
2019-04-05T20:25:21.244Z,49.10
2019-04-05T20:27:56.454Z,43.15
2019-04-05T20:30:30.696Z,49.13
2019-04-05T20:33:06.769Z,55.88
2019-04-05T20:35:39.240Z,49.58
2019-04-05T20:38:10.227Z,50.12
2019-04-05T20:40:51.157Z,40.65
2019-04-05T20:43:23.280Z,47.05
2019-04-05T20:45:57.769Z,45.90
2019-04-05T20:48:35.770Z,45.73
2019-04-05T20:51:17.847Z,47.95
2019-04-05T20:53:55.808Z,50.28
2019-04-05T20:56:36.656Z,47.75
2019-04-05T20:59:11.859Z,55.33
2019-04-05T21:04:09.966Z,84.95
2019-04-05T21:06:46.370Z,81.20
2019-04-05T21:09:31.169Z,76.55
2019-04-05T21:15:27.090Z,80.00
2019-04-05T21:18:14.485Z,78.05
2019-04-05T21:20:50.748Z,77.22
2019-04-05T21:23:37.850Z,79.22
2019-04-05T21:26:19.031Z,71.75
2019-04-05T21:29:04.446Z,65.30
2019-04-05T21:31:59.730Z,57.33
2019-04-05T21:34:30.176Z,59.03
2019-04-05T21:40:19.909Z,54.75
2019-04-05T21:42:51.817Z,49.83
2019-04-05T21:45:21.886Z,53.70
2019-04-05T21:47:51.961Z,55.60
2019-04-05T21:50:22.307Z,54.63
2019-04-05T21:52:55.998Z,54.83
2019-04-05T21:55:26.085Z,56.63
2019-04-05T21:57:56.137Z,57.62
2019-04-05T22:00:33.427Z,66.40
2019-04-05T22:03:04.878Z,66.67
2019-04-05T22:05:35.003Z,65.83
2019-04-05T22:08:05.158Z,61.88
2019-04-05T22:10:35.182Z,66.35
2019-04-05T22:13:05.456Z,54.25
2019-04-05T22:15:36.697Z,57.93
2019-04-05T22:18:06.607Z,48.65
2019-04-05T22:20:36.670Z,50.17
2019-04-05T22:23:06.724Z,40.65
2019-04-05T22:25:43.629Z,39.35
2019-04-05T22:28:13.492Z,42.25
2019-04-05T22:30:44.764Z,40.50
2019-04-05T22:33:14.738Z,44.70
2019-04-05T22:35:45.326Z,43.10
2019-04-05T22:38:15.184Z,41.33
2019-04-05T22:40:46.746Z,47.08
2019-04-05T22:43:16.662Z,47.98
2019-04-05T22:45:47.000Z,53.58
2019-04-05T22:48:17.105Z,50.83
2019-04-05T22:50:47.128Z,44.42
2019-04-05T22:53:17.038Z,44.58
2019-04-05T22:55:47.365Z,44.00
2019-04-05T22:58:17.340Z,45.67
2019-04-05T23:00:47.414Z,45.08
2019-04-05T23:03:17.610Z,40.90
2019-04-05T23:05:48.644Z,37.42
2019-04-05T23:08:18.834Z,37.50
2019-04-05T23:10:48.827Z,34.43
2019-04-05T23:13:18.690Z,38.00
2019-04-05T23:15:49.013Z,36.77
2019-04-05T23:18:18.921Z,42.48
2019-04-05T23:20:49.038Z,50.10
2019-04-05T23:23:20.344Z,87.40
2019-04-05T23:25:50.710Z,65.22
2019-04-05T23:28:20.658Z,68.12
2019-04-05T23:30:50.865Z,47.27
2019-04-05T23:33:21.011Z,41.18
2019-04-05T23:35:51.006Z,42.38
2019-04-05T23:38:21.196Z,35.50
2019-04-05T23:40:51.310Z,36.35
2019-04-05T23:43:24.589Z,33.78
2019-04-05T23:45:54.896Z,36.13
2019-04-05T23:48:25.448Z,40.43
2019-04-05T23:50:55.903Z,34.92
2019-04-05T23:53:25.903Z,43.40
2019-04-05T23:55:55.923Z,39.88
2019-04-05T23:58:26.050Z,49.85
